createdAt,value
2019-01-03T00:02:47.168Z,97781.09
2019-01-03T00:08:08.801Z,97796.46
2019-01-03T00:13:47.627Z,97770.72
2019-01-03T00:19:09.770Z,97779.14
2019-01-03T00:24:31.309Z,97795.97
2019-01-03T00:30:09.268Z,97822.94
2019-01-03T00:35:30.112Z,97795.21
2019-01-03T00:40:59.689Z,97811.39
2019-01-03T00:46:11.718Z,97806.87
2019-01-03T00:51:37.503Z,97817.92
2019-01-03T00:56:59.074Z,97815.23
2019-01-03T01:02:37.054Z,97815.03
2019-01-03T01:07:59.558Z,97826.38
2019-01-03T01:13:21.114Z,97793.30
2019-01-03T01:18:42.715Z,97787.48
2019-01-03T01:24:08.322Z,97823.28
2019-01-03T01:29:33.890Z,97785.31
2019-01-03T01:35:03.198Z,97823.94
2019-01-03T01:40:35.111Z,97840.70
2019-01-03T01:45:58.197Z,97812.66
2019-01-03T01:51:19.464Z,97814.08
2019-01-03T01:56:41.452Z,97806.78
2019-01-03T02:02:16.739Z,97802.70
2019-01-03T02:07:38.626Z,97799.84
2019-01-03T02:13:19.869Z,97806.81
2019-01-03T02:18:53.358Z,97819.86
2019-01-03T02:24:22.384Z,97812.89
2019-01-03T02:29:44.414Z,97835.41
2019-01-03T02:35:26.009Z,97792.13
2019-01-03T02:41:01.027Z,97817.06
2019-01-03T02:46:22.414Z,97792.52
2019-01-03T02:51:48.101Z,97804.52
2019-01-03T02:57:20.304Z,97793.03
2019-01-03T03:02:48.872Z,97823.77
2019-01-03T03:08:24.077Z,97824.62
2019-01-03T03:13:41.700Z,97794.22
2019-01-03T03:19:04.696Z,97815.13
2019-01-03T03:24:26.425Z,97824.33
2019-01-03T03:30:01.442Z,97805.89
2019-01-03T03:35:33.474Z,97854.58
2019-01-03T03:40:56.869Z,97826.14
2019-01-03T03:46:19.026Z,97820.10
2019-01-03T03:51:40.606Z,97821.44
2019-01-03T03:56:58.064Z,97820.69
2019-01-03T04:02:25.140Z,97830.05
2019-01-03T04:07:47.443Z,97824.09
2019-01-03T04:13:19.235Z,97828.20
2019-01-03T04:18:48.418Z,97821.80
2019-01-03T04:24:11.256Z,97817.83
2019-01-03T04:29:43.302Z,97854.58
2019-01-03T04:35:15.283Z,97835.72
2019-01-03T04:40:37.478Z,97821.71
2019-01-03T04:46:09.965Z,97823.43
2019-01-03T04:51:44.461Z,97819.11
2019-01-03T04:57:10.404Z,97837.84
2019-01-03T05:02:33.010Z,97851.95
2019-01-03T05:07:57.372Z,97870.66
2019-01-03T05:13:23.949Z,97873.98
2019-01-03T05:18:47.136Z,97878.42
2019-01-03T05:24:10.067Z,97870.09
2019-01-03T05:29:34.008Z,97871.33
2019-01-03T05:35:00.221Z,97876.23
2019-01-03T05:40:22.129Z,97889.81
2019-01-03T05:45:58.685Z,97902.36
2019-01-03T05:51:21.452Z,97919.05
2019-01-03T05:56:44.192Z,97931.90
2019-01-03T06:02:16.777Z,97945.41
2019-01-03T06:07:38.116Z,97962.73
2019-01-03T06:13:03.871Z,97974.48
2019-01-03T06:18:45.014Z,97974.78
2019-01-03T06:24:18.060Z,97982.99
2019-01-03T06:29:44.565Z,97975.89
2019-01-03T06:35:13.996Z,97975.98
2019-01-03T06:40:39.933Z,97979.23
2019-01-03T06:46:04.280Z,97990.80
2019-01-03T06:51:34.037Z,97988.03
2019-01-03T06:56:55.785Z,97982.36
2019-01-03T07:02:17.299Z,97993.03
2019-01-03T07:07:40.479Z,97992.23
2019-01-03T07:13:09.486Z,97990.88
2019-01-03T07:18:38.388Z,97998.83
2019-01-03T07:24:04.223Z,97993.89
2019-01-03T07:29:26.660Z,97990.75
2019-01-03T07:34:52.938Z,97985.65
2019-01-03T07:40:18.319Z,97979.25
2019-01-03T07:45:39.148Z,97974.58
2019-01-03T07:51:02.045Z,97970.82
2019-01-03T07:56:34.140Z,97971.22
2019-01-03T08:02:08.962Z,97978.50
2019-01-03T08:07:42.722Z,98006.42
2019-01-03T08:13:04.801Z,98011.07
2019-01-03T08:18:42.707Z,98015.65
2019-01-03T08:24:01.490Z,98020.52
2019-01-03T08:29:24.524Z,98039.61
2019-01-03T08:34:49.892Z,98030.04
2019-01-03T08:40:11.534Z,98032.25
2019-01-03T08:45:40.386Z,98027.23
2019-01-03T08:51:02.707Z,98025.22
2019-01-03T08:56:37.708Z,98020.70
2019-01-03T09:01:58.865Z,98007.62
2019-01-03T09:07:20.571Z,98011.13
2019-01-03T09:12:46.369Z,98018.30
2019-01-03T09:18:12.862Z,98007.25
2019-01-03T09:23:41.643Z,98008.05
2019-01-03T09:29:06.339Z,98000.30
2019-01-03T09:34:42.183Z,97995.75
2019-01-03T09:40:04.468Z,97996.63
2019-01-03T09:45:08.233Z,97986.22
2019-01-03T09:50:11.628Z,97989.59
2019-01-03T09:55:15.128Z,97982.17
2019-01-03T10:00:19.219Z,97970.78
2019-01-03T10:05:23.806Z,97968.52
2019-01-03T10:10:27.175Z,97965.44
2019-01-03T10:15:30.686Z,97954.27
2019-01-03T10:20:34.300Z,97949.74
2019-01-03T10:25:38.211Z,97974.13
2019-01-03T10:30:42.229Z,97953.69
2019-01-03T10:35:45.924Z,97963.80
2019-01-03T10:40:49.593Z,97942.20
2019-01-03T10:45:53.055Z,97951.57
2019-01-03T10:50:56.874Z,97959.28
2019-01-03T10:56:00.650Z,97946.69
2019-01-03T11:01:04.504Z,97936.66
2019-01-03T11:06:07.878Z,97940.61
2019-01-03T11:11:13.315Z,97938.28
2019-01-03T11:16:16.651Z,97918.89
2019-01-03T11:21:19.957Z,97922.88
2019-01-03T11:26:23.508Z,97923.27
2019-01-03T11:31:27.661Z,97907.86
2019-01-03T11:36:31.384Z,97905.24
2019-01-03T11:41:35.081Z,97932.58
2019-01-03T11:46:40.585Z,97915.53
2019-01-03T11:51:45.356Z,97913.86
2019-01-03T11:56:48.968Z,97893.67
2019-01-03T12:01:53.555Z,97891.31
2019-01-03T12:06:56.981Z,97882.38
2019-01-03T12:12:00.744Z,97893.44
2019-01-03T12:17:04.764Z,97874.52
2019-01-03T12:22:09.128Z,97877.44
2019-01-03T12:27:12.630Z,97891.19
2019-01-03T12:32:16.533Z,97859.11
2019-01-03T12:37:21.883Z,97862.38
2019-01-03T12:42:25.622Z,97864.34
2019-01-03T12:47:29.062Z,97875.41
2019-01-03T12:52:33.817Z,97877.91
2019-01-03T12:57:38.838Z,97879.02
2019-01-03T13:02:42.336Z,97878.12
2019-01-03T13:07:45.883Z,97882.95
2019-01-03T13:12:49.723Z,97891.09
2019-01-03T13:17:53.304Z,97892.58
2019-01-03T13:22:57.579Z,97919.09
2019-01-03T13:28:03.822Z,97911.38
2019-01-03T13:33:10.246Z,97922.78
2019-01-03T13:38:17.531Z,97922.47
2019-01-03T13:43:20.934Z,97903.74
2019-01-03T13:48:24.331Z,97913.48
2019-01-03T13:53:27.669Z,97902.95
2019-01-03T13:58:31.671Z,97912.97
2019-01-03T14:03:36.135Z,97911.23
2019-01-03T14:08:41.384Z,97921.83
2019-01-03T14:13:47.407Z,97913.95
2019-01-03T14:18:50.897Z,97914.58
2019-01-03T14:23:54.444Z,97904.18
2019-01-03T14:28:57.857Z,97897.17
2019-01-03T14:34:01.776Z,97908.15
2019-01-03T14:39:06.491Z,97901.00
2019-01-03T14:44:11.425Z,97884.88
2019-01-03T14:49:14.948Z,97875.52
2019-01-03T14:54:21.351Z,97873.52
2019-01-03T14:59:26.477Z,97871.92
2019-01-03T15:04:30.453Z,97876.23
2019-01-03T15:09:34.159Z,97843.66
2019-01-03T15:14:37.797Z,97855.84
2019-01-03T15:19:42.435Z,97847.55
2019-01-03T15:24:45.887Z,97837.63
2019-01-03T15:29:49.868Z,97818.17
2019-01-03T15:34:54.043Z,97815.64
2019-01-03T15:39:58.806Z,97835.52
2019-01-03T15:45:07.285Z,97798.25
2019-01-03T15:50:10.936Z,97805.85
2019-01-03T15:55:14.489Z,97821.63
2019-01-03T16:00:18.369Z,97793.57
2019-01-03T16:05:22.789Z,97802.88
2019-01-03T16:10:26.210Z,97793.57
2019-01-03T16:15:29.772Z,97789.37
2019-01-03T16:20:33.352Z,97785.78
2019-01-03T16:25:38.246Z,97785.80
2019-01-03T16:30:42.257Z,97777.63
2019-01-03T16:35:48.221Z,97787.38
2019-01-03T16:40:51.713Z,97791.98
2019-01-03T16:46:03.334Z,97791.78
2019-01-03T16:51:12.012Z,97793.54
2019-01-03T16:56:15.512Z,97831.80
2019-01-03T17:01:19.051Z,97805.44
2019-01-03T17:06:26.200Z,97817.95
2019-01-03T17:11:30.031Z,97854.45
2019-01-03T17:16:33.686Z,97841.70
2019-01-03T17:21:37.097Z,97832.48
2019-01-03T17:26:42.172Z,97859.81
2019-01-03T17:31:45.761Z,97829.98
2019-01-03T17:36:49.451Z,97829.34
2019-01-03T17:41:53.116Z,97811.73
2019-01-03T17:46:57.483Z,97816.45
2019-01-03T17:52:00.850Z,97807.25
2019-01-03T17:57:05.542Z,97796.02
2019-01-03T18:02:09.066Z,97770.81
2019-01-03T18:07:13.140Z,97789.14
2019-01-03T18:12:16.552Z,97762.22
2019-01-03T18:17:20.247Z,97747.69
2019-01-03T18:22:23.597Z,97755.50
2019-01-03T18:27:27.122Z,97749.69
2019-01-03T18:32:30.553Z,97731.22
2019-01-03T18:37:34.083Z,97740.21
2019-01-03T18:42:38.919Z,97728.69
2019-01-03T18:47:42.799Z,97747.81
2019-01-03T18:52:47.682Z,97736.21
2019-01-03T18:57:51.724Z,97728.61
2019-01-03T19:02:57.554Z,97746.95
2019-01-03T19:08:05.098Z,97727.69
2019-01-03T19:13:09.082Z,97761.73
2019-01-03T19:18:12.656Z,97743.74
2019-01-03T19:23:16.000Z,97737.82
2019-01-03T19:28:19.346Z,97741.53
2019-01-03T19:33:22.758Z,97724.22
2019-01-03T19:38:26.131Z,97752.09
2019-01-03T19:43:30.623Z,97739.39
2019-01-03T19:48:34.148Z,97764.52
2019-01-03T19:53:37.388Z,97733.44
2019-01-03T19:58:40.860Z,97752.48
2019-01-03T20:03:44.299Z,97809.91
2019-01-03T20:08:47.729Z,97737.82
2019-01-03T20:13:52.143Z,97702.77
2019-01-03T20:21:56.609Z,97698.34
2019-01-03T20:27:02.646Z,97705.53
2019-01-03T20:32:07.195Z,97708.70
2019-01-03T20:37:11.416Z,97724.59
2019-01-03T20:42:15.981Z,97699.68
2019-01-03T20:47:20.088Z,97701.18
2019-01-03T20:52:28.082Z,97718.34
2019-01-03T20:57:32.461Z,97796.55
2019-01-03T21:02:37.589Z,97701.02
2019-01-03T21:07:42.367Z,97679.55
2019-01-03T21:12:47.090Z,97693.47
2019-01-03T21:17:51.177Z,97678.92
2019-01-03T21:22:59.590Z,97702.05
2019-01-03T21:28:10.406Z,97726.30
2019-01-03T21:33:15.090Z,97738.98
2019-01-03T21:38:19.336Z,97759.45
2019-01-03T21:43:24.753Z,97781.11
2019-01-03T21:48:28.954Z,97648.93
2019-01-03T21:53:35.452Z,97788.67
2019-01-03T21:58:39.636Z,97817.62
2019-01-03T22:03:43.917Z,97772.73
2019-01-03T22:08:48.259Z,97728.28
2019-01-03T22:13:52.502Z,97802.39
2019-01-03T22:18:56.630Z,97811.77
2019-01-03T22:24:00.693Z,97770.13
2019-01-03T22:29:04.758Z,97782.06
2019-01-03T22:34:08.841Z,97819.68
2019-01-03T22:39:13.005Z,97809.56
2019-01-03T22:44:17.275Z,97798.27
2019-01-03T22:49:21.432Z,97780.95
2019-01-03T22:54:25.588Z,97775.92
2019-01-03T22:59:29.772Z,97827.97
2019-01-03T23:04:34.708Z,97883.05
2019-01-03T23:09:39.139Z,97832.03
2019-01-03T23:14:43.371Z,97803.48
2019-01-03T23:19:48.076Z,97819.09
2019-01-03T23:24:52.261Z,97782.50
2019-01-03T23:29:56.838Z,97830.05
2019-01-03T23:35:00.969Z,97863.16
2019-01-03T23:40:05.295Z,97766.37
2019-01-03T23:45:18.550Z,97861.85
2019-01-03T23:50:31.230Z,97763.21
2019-01-03T23:55:40.466Z,97833.08
